createdAt,value
2023-03-19T00:03:27.499Z,2.80
2023-03-19T00:09:31.210Z,2.63
2023-03-19T00:15:36.441Z,2.90
2023-03-19T00:21:39.962Z,2.75
2023-03-19T00:27:44.532Z,3.30
2023-03-19T00:33:49.494Z,3.28
2023-03-19T00:39:53.063Z,3.10
2023-03-19T00:45:56.645Z,3.50
2023-03-19T00:52:01.664Z,3.38
2023-03-19T00:58:06.752Z,3.47
2023-03-19T01:04:11.189Z,3.55
2023-03-19T01:10:16.829Z,3.45
2023-03-19T01:16:20.539Z,3.60
2023-03-19T01:22:24.012Z,3.53
2023-03-19T01:28:28.863Z,3.85
2023-03-19T01:34:32.293Z,3.60
2023-03-19T01:40:35.808Z,4.32
2023-03-19T01:46:41.332Z,3.97
2023-03-19T01:52:45.265Z,3.65
2023-03-19T01:58:50.777Z,3.80
2023-03-19T02:04:59.121Z,4.07
2023-03-19T02:11:02.967Z,3.55
2023-03-19T02:17:07.076Z,4.03
2023-03-19T02:23:15.927Z,4.18
2023-03-19T02:29:20.737Z,4.20
2023-03-19T02:35:24.153Z,4.50
2023-03-19T02:41:28.325Z,4.38
2023-03-19T02:47:33.167Z,4.38
2023-03-19T02:53:36.660Z,4.60
2023-03-19T02:59:40.080Z,4.47
2023-03-19T03:05:44.818Z,4.63
2023-03-19T03:11:48.301Z,4.80
2023-03-19T03:17:51.697Z,5.38
2023-03-19T03:23:56.472Z,6.18
2023-03-19T03:30:00.165Z,5.97
2023-03-19T03:36:03.684Z,4.85
2023-03-19T03:42:09.155Z,5.35
2023-03-19T03:48:12.603Z,4.72
2023-03-19T03:54:16.630Z,4.97
2023-03-19T04:00:21.854Z,5.38
2023-03-19T04:06:27.077Z,4.60
2023-03-19T04:12:30.473Z,5.15
2023-03-19T04:18:36.802Z,4.75
2023-03-19T04:24:40.715Z,6.38
2023-03-19T04:30:44.926Z,6.15
2023-03-19T04:36:50.259Z,5.50
2023-03-19T04:42:53.818Z,5.07
2023-03-19T04:48:57.300Z,5.22
2023-03-19T04:55:02.149Z,4.68
2023-03-19T05:01:05.658Z,5.43
2023-03-19T05:07:09.174Z,5.82
2023-03-19T05:13:13.915Z,6.68
2023-03-19T05:19:17.592Z,6.35
2023-03-19T05:25:21.023Z,7.30
2023-03-19T05:31:26.062Z,10.98
2023-03-19T05:37:29.495Z,8.73
2023-03-19T05:43:33.431Z,9.45
2023-03-19T05:49:38.214Z,7.95
2023-03-19T05:55:41.595Z,8.93
2023-03-19T06:01:45.050Z,8.73
2023-03-19T06:07:49.912Z,7.78
2023-03-19T06:13:53.337Z,7.82
2023-03-19T06:19:57.019Z,8.32
2023-03-19T06:26:02.086Z,8.63
2023-03-19T06:32:05.585Z,8.65
2023-03-19T06:38:08.969Z,8.50
2023-03-19T06:44:13.738Z,9.25
2023-03-19T06:50:18.362Z,9.57
2023-03-19T06:56:22.164Z,9.23
2023-03-19T07:02:27.684Z,9.63
2023-03-19T07:08:31.218Z,7.18
2023-03-19T07:14:34.744Z,9.32
2023-03-19T07:20:39.882Z,10.00
2023-03-19T07:26:44.105Z,9.63
2023-03-19T07:32:47.658Z,10.35
2023-03-19T07:38:52.479Z,8.82
2023-03-19T07:44:55.970Z,9.68
2023-03-19T07:50:59.484Z,9.60
2023-03-19T07:57:04.292Z,8.65
2023-03-19T08:03:07.720Z,8.98
2023-03-19T08:09:11.516Z,9.55
2023-03-19T08:15:17.246Z,9.73
2023-03-19T08:21:21.003Z,4.93
2023-03-19T08:27:24.641Z,3.10
2023-03-19T08:33:29.412Z,3.08
2023-03-19T08:39:32.987Z,2.05
2023-03-19T08:45:36.353Z,2.80
2023-03-19T08:51:41.624Z,2.58
2023-03-19T08:57:45.086Z,2.67
2023-03-19T09:03:48.503Z,2.85
2023-03-19T09:09:53.326Z,2.63
2023-03-19T09:15:57.058Z,2.85
2023-03-19T09:22:00.747Z,2.97
2023-03-19T09:28:05.921Z,3.13
2023-03-19T09:34:09.400Z,3.50
2023-03-19T09:40:21.655Z,2.80
2023-03-19T09:46:29.846Z,3.17
2023-03-19T09:52:41.474Z,2.55
2023-03-19T09:58:45.744Z,3.08
2023-03-19T10:04:54.680Z,2.67
2023-03-19T10:11:07.630Z,2.97
2023-03-19T10:17:15.011Z,2.25
2023-03-19T10:23:35.047Z,2.05
2023-03-19T10:29:39.690Z,1.48
2023-03-19T10:35:43.731Z,2.55
2023-03-19T10:41:55.416Z,3.20
2023-03-19T10:47:59.812Z,1.88
2023-03-19T10:54:03.299Z,2.08
2023-03-19T11:00:17.981Z,1.98
2023-03-19T11:06:24.937Z,1.90
2023-03-19T11:12:31.610Z,2.35
2023-03-19T11:18:41.464Z,2.72
2023-03-19T11:24:50.100Z,2.67
2023-03-19T11:30:57.981Z,2.80
2023-03-19T11:37:07.614Z,2.50
2023-03-19T11:43:41.386Z,2.65
2023-03-19T11:49:51.182Z,2.22
2023-03-19T11:56:01.387Z,2.72
2023-03-19T12:02:19.614Z,2.95
2023-03-19T12:08:30.516Z,2.88
2023-03-19T12:14:41.070Z,2.45
2023-03-19T12:20:51.548Z,2.92
2023-03-19T12:27:01.805Z,2.30
2023-03-19T12:33:12.541Z,1.88
2023-03-19T12:39:18.331Z,2.10
2023-03-19T12:45:27.066Z,1.65
2023-03-19T12:51:35.951Z,2.40
2023-03-19T12:57:42.277Z,1.42
2023-03-19T13:03:50.939Z,2.63
2023-03-19T13:10:00.557Z,3.25
2023-03-19T13:16:06.102Z,2.45
2023-03-19T13:22:12.740Z,2.67
2023-03-19T13:28:22.621Z,2.67
2023-03-19T13:34:27.988Z,2.78
2023-03-19T13:40:42.246Z,2.83
2023-03-19T13:46:47.147Z,2.75
2023-03-19T13:52:52.618Z,3.28
2023-03-19T13:59:19.846Z,2.80
2023-03-19T14:05:24.680Z,3.20
2023-03-19T14:11:31.665Z,3.10
2023-03-19T14:17:36.224Z,2.78
2023-03-19T14:23:46.502Z,2.55
2023-03-19T14:29:50.777Z,2.30
2023-03-19T14:35:54.519Z,2.20
2023-03-19T14:42:01.642Z,1.80
2023-03-19T14:48:25.885Z,1.80
2023-03-19T14:54:32.723Z,1.98
2023-03-19T15:00:42.374Z,2.17
2023-03-19T15:06:48.415Z,2.00
2023-03-19T15:13:17.507Z,2.00
2023-03-19T15:19:26.534Z,2.25
2023-03-19T15:25:30.168Z,3.13
2023-03-19T15:31:51.731Z,2.00
2023-03-19T15:38:01.281Z,2.15
2023-03-19T15:44:08.165Z,2.35
2023-03-19T15:50:14.312Z,2.03
2023-03-19T15:56:20.426Z,2.38
2023-03-19T16:02:26.943Z,2.25
2023-03-19T16:08:31.129Z,2.47
2023-03-19T16:14:41.816Z,2.13
2023-03-19T16:20:46.104Z,2.58
2023-03-19T16:26:49.882Z,1.77
2023-03-19T16:33:01.894Z,1.60
2023-03-19T16:39:16.289Z,2.00
2023-03-19T16:45:23.561Z,1.52
2023-03-19T16:51:28.444Z,2.20
2023-03-19T16:57:31.855Z,1.40
2023-03-19T17:03:35.472Z,1.33
2023-03-19T17:09:40.435Z,1.30
2023-03-19T17:15:44.268Z,1.67
2023-03-19T17:21:48.290Z,1.65
2023-03-19T17:27:53.150Z,1.90
2023-03-19T17:33:59.064Z,2.00
2023-03-19T17:40:02.846Z,1.80
2023-03-19T17:46:08.204Z,2.03
2023-03-19T17:52:15.374Z,1.67
2023-03-19T17:58:19.781Z,2.55
2023-03-19T18:04:24.629Z,2.15
2023-03-19T18:10:30.491Z,3.50
2023-03-19T18:16:34.569Z,2.88
2023-03-19T18:22:39.898Z,2.35
2023-03-19T18:28:43.335Z,2.20
2023-03-19T18:34:47.023Z,3.50
2023-03-19T18:40:52.332Z,6.47
2023-03-19T18:46:55.919Z,8.98
2023-03-19T18:52:59.319Z,7.93
2023-03-19T18:59:05.607Z,9.10
2023-03-19T19:05:13.074Z,11.48
2023-03-19T19:11:17.385Z,7.85
2023-03-19T19:17:24.160Z,3.28
2023-03-19T19:23:28.238Z,4.47
2023-03-19T19:29:32.567Z,3.90
2023-03-19T19:35:37.485Z,4.10
2023-03-19T19:41:43.866Z,6.22
2023-03-19T19:47:51.617Z,10.52
2023-03-19T19:53:56.424Z,13.77
2023-03-19T19:59:59.814Z,12.93
2023-03-19T20:06:03.314Z,17.75
2023-03-19T20:12:16.299Z,17.42
2023-03-19T20:18:20.957Z,25.17
2023-03-19T20:24:25.039Z,12.77
2023-03-19T20:30:30.956Z,20.20
2023-03-19T20:36:35.009Z,14.90
2023-03-19T20:42:38.523Z,14.32
2023-03-19T20:48:43.552Z,25.27
2023-03-19T20:54:46.931Z,20.10
2023-03-19T21:00:50.974Z,17.85
2023-03-19T21:06:56.170Z,17.67
2023-03-19T21:12:59.992Z,22.67
2023-03-19T21:19:04.225Z,13.95
2023-03-19T21:25:15.664Z,10.13
2023-03-19T21:31:20.634Z,9.82
2023-03-19T21:37:24.164Z,10.00
2023-03-19T21:43:32.508Z,12.25
2023-03-19T21:49:36.199Z,12.10
2023-03-19T21:55:40.096Z,12.23
2023-03-19T22:01:44.941Z,10.57
2023-03-19T22:07:48.514Z,10.48
2023-03-19T22:13:51.959Z,11.43
2023-03-19T22:19:58.181Z,9.70
2023-03-19T22:26:02.158Z,10.57
2023-03-19T22:32:05.808Z,10.63
2023-03-19T22:38:10.783Z,10.07
2023-03-19T22:44:17.645Z,8.80
2023-03-19T22:50:23.090Z,6.43
2023-03-19T22:56:27.874Z,7.30
2023-03-19T23:02:31.413Z,7.70
2023-03-19T23:08:36.057Z,7.45
2023-03-19T23:14:41.005Z,5.60
2023-03-19T23:20:44.479Z,5.07
2023-03-19T23:26:48.885Z,4.97
2023-03-19T23:32:54.765Z,6.45
2023-03-19T23:38:59.290Z,5.90
2023-03-19T23:45:04.003Z,6.15
2023-03-19T23:51:11.487Z,4.88
2023-03-19T23:57:16.213Z,5.35
